createdAt,value
2018-11-21T00:05:12.997Z,44.5
2018-11-21T00:15:16.573Z,44.6
2018-11-21T00:25:20.165Z,44.6
2018-11-21T00:35:23.798Z,44.7
2018-11-21T00:45:27.415Z,44.8
2018-11-21T00:55:31.014Z,44.8
2018-11-21T01:05:34.676Z,44.8
2018-11-21T01:15:38.201Z,44.8
2018-11-21T01:25:41.903Z,44.9
2018-11-21T01:35:45.564Z,44.9
2018-11-21T01:45:49.206Z,44.9
2018-11-21T01:55:52.787Z,45
2018-11-21T02:05:56.522Z,45
2018-11-21T02:16:00.080Z,45
2018-11-21T02:26:03.726Z,45.1
2018-11-21T02:36:07.292Z,45.1
2018-11-21T02:46:10.897Z,45.1
2018-11-21T02:56:14.604Z,45.1
2018-11-21T03:06:18.281Z,45.1
2018-11-21T03:16:21.934Z,45.1
2018-11-21T03:26:25.544Z,45.1
2018-11-21T03:36:29.176Z,45.1
2018-11-21T03:46:32.785Z,45.2
2018-11-21T03:56:36.375Z,45.1
2018-11-21T04:06:40.059Z,45.2
2018-11-21T04:16:43.685Z,45.2
2018-11-21T04:26:47.285Z,45.2
2018-11-21T04:36:50.941Z,45.2
2018-11-21T04:46:54.611Z,45.2
2018-11-21T04:56:58.162Z,45.2
2018-11-21T05:07:01.767Z,45.2
2018-11-21T05:17:05.382Z,45.2
2018-11-21T05:27:09.047Z,45.2
2018-11-21T05:37:12.675Z,45.2
2018-11-21T05:47:16.378Z,45.2
2018-11-21T05:57:19.965Z,45.2
2018-11-21T06:07:23.554Z,45.2
2018-11-21T06:17:27.114Z,45.4
2018-11-21T06:27:30.873Z,45.4
2018-11-21T06:37:34.506Z,43.8
2018-11-21T06:47:38.157Z,47.1
2018-11-21T06:57:41.797Z,46.5
2018-11-21T07:07:45.366Z,46.6
2018-11-21T07:17:48.922Z,46.6
2018-11-21T07:27:52.548Z,46
2018-11-21T07:37:56.134Z,46.9
2018-11-21T07:47:59.763Z,45.9
2018-11-21T07:58:03.321Z,46.6
2018-11-21T08:08:06.867Z,46.3
2018-11-21T08:18:10.457Z,46.6
2018-11-21T08:28:14.072Z,45.7
2018-11-21T08:38:17.665Z,45.8
2018-11-21T08:48:21.212Z,46.7
